Time;durP1;ratioP1;P1;durP2;ratioP2;P2;SDS_P1;SDS_P2;PMS_P1;PMS_P2;Temp;Humidity;BMP_temperature;BMP_pressure;BME280_temperature;BME280_humidity;BME280_pressure;Samples;Min_cycle;Max_cycle;Signal;HPM_P1;HPM_P2
2022/09/19 00:00:14;;;;;;;2.90;0.90;;;;;;;;;;5100776;28;20198;-77
2022/09/19 00:03:18;;;;;;;0.77;0.53;;;;;;;;;;5087563;28;20226;-78
2022/09/19 00:06:23;;;;;;;0.97;0.60;;;;;;;;;;5099265;28;20198;-78
2022/09/19 00:09:30;;;;;;;0.83;0.50;;;;;;;;;;5098804;28;20630;-78
2022/09/19 00:12:35;;;;;;;1.00;0.50;;;;;;;;;;5098403;28;20211;-78
2022/09/19 00:15:48;;;;;;;0.97;0.50;;;;;;;;;;5099494;28;20204;-78
2022/09/19 00:18:54;;;;;;;0.90;0.57;;;;;;;;;;5075165;28;20194;-77
2022/09/19 00:22:00;;;;;;;1.00;0.40;;;;;;;;;;5109820;28;20215;-78
2022/09/19 00:25:06;;;;;;;0.97;0.57;;;;;;;;;;5099005;28;20175;-78
2022/09/19 00:28:10;;;;;;;0.80;0.60;;;;;;;;;;5097193;28;20199;-78
2022/09/19 00:31:20;;;;;;;0.87;0.60;;;;;;;;;;5099010;28;20215;-77
2022/09/19 00:34:25;;;;;;;2.00;0.50;;;;;;;;;;5086241;28;20171;-78
2022/09/19 00:37:29;;;;;;;1.70;0.97;;;;;;;;;;5098244;28;20175;-77
2022/09/19 00:40:33;;;;;;;1.27;0.50;;;;;;;;;;5097674;28;20178;-77
2022/09/19 00:43:46;;;;;;;1.10;0.40;;;;;;;;;;5085567;28;20200;-78
2022/09/19 00:47:04;;;;;;;0.53;0.40;;;;;;;;;;5097768;28;20191;-78
2022/09/19 00:50:16;;;;;;;0.60;0.50;;;;;;;;;;5097019;28;20191;-78
2022/09/19 00:53:22;;;;;;;0.33;0.33;;;;;;;;;;5099295;28;20685;-79
2022/09/19 00:56:28;;;;;;;1.00;0.47;;;;;;;;;;5098199;28;20207;-78
2022/09/19 00:59:35;;;;;;;0.50;0.40;;;;;;;;;;5098901;28;20171;-78
2022/09/19 01:02:41;;;;;;;0.40;0.40;;;;;;;;;;5098520;28;20218;-78
2022/09/19 01:06:03;;;;;;;0.40;0.40;;;;;;;;;;5099034;28;20186;-78
2022/09/19 01:09:23;;;;;;;2.40;0.40;;;;;;;;;;5098777;28;20623;-77
2022/09/19 01:12:54;;;;;;;0.33;0.30;;;;;;;;;;5099320;28;20693;-78
2022/09/19 01:16:10;;;;;;;0.40;0.40;;;;;;;;;;5087504;28;20178;-78
2022/09/19 01:19:47;;;;;;;0.40;0.40;;;;;;;;;;5087900;28;20183;-79
2022/09/19 01:23:32;;;;;;;0.30;0.30;;;;;;;;;;5098054;28;20211;-79
2022/09/19 01:26:46;;;;;;;1.13;0.40;;;;;;;;;;5085461;28;20198;-79
2022/09/19 01:29:58;;;;;;;1.40;0.30;;;;;;;;;;5075035;28;20175;-79
2022/09/19 01:33:18;;;;;;;0.40;0.40;;;;;;;;;;5086360;28;20222;-79
2022/09/19 01:36:30;;;;;;;0.87;0.50;;;;;;;;;;5086433;28;20534;-78
2022/09/19 01:39:41;;;;;;;0.53;0.50;;;;;;;;;;5075211;28;20178;-79
2022/09/19 01:42:57;;;;;;;1.03;0.43;;;;;;;;;;5086045;28;20214;-79
2022/09/19 01:46:11;;;;;;;0.63;0.40;;;;;;;;;;5074705;28;20183;-79
2022/09/19 01:49:38;;;;;;;1.23;0.40;;;;;;;;;;5097571;28;20187;-79
2022/09/19 01:53:09;;;;;;;1.80;0.30;;;;;;;;;;5098363;28;20211;-78
2022/09/19 01:56:27;;;;;;;0.80;0.50;;;;;;;;;;5097666;28;20198;-79
2022/09/19 01:59:47;;;;;;;0.90;0.40;;;;;;;;;;5085739;28;20171;-80
2022/09/19 02:03:16;;;;;;;0.40;0.30;;;;;;;;;;5086637;28;20218;-79
2022/09/19 02:06:50;;;;;;;1.90;0.40;;;;;;;;;;5098079;28;20178;-79
2022/09/19 02:10:00;;;;;;;0.40;0.40;;;;;;;;;;5075406;28;20522;-79
2022/09/19 02:13:09;;;;;;;0.93;0.40;;;;;;;;;;5098296;28;20218;-79
2022/09/19 02:16:30;;;;;;;1.47;0.40;;;;;;;;;;5086242;28;20187;-79
2022/09/19 02:19:58;;;;;;;0.40;0.40;;;;;;;;;;5086798;28;20179;-78
2022/09/19 02:23:17;;;;;;;0.40;0.40;;;;;;;;;;5097831;28;20206;-78
2022/09/19 02:26:22;;;;;;;0.50;0.40;;;;;;;;;;5086996;28;20191;-78
2022/09/19 02:29:32;;;;;;;0.50;0.33;;;;;;;;;;5085432;28;20195;-79
2022/09/19 02:32:46;;;;;;;0.30;0.30;;;;;;;;;;5085778;28;20222;-79
2022/09/19 02:36:04;;;;;;;0.93;0.47;;;;;;;;;;5097127;28;20569;-78
2022/09/19 02:39:20;;;;;;;1.80;0.50;;;;;;;;;;5110075;28;20187;-78
2022/09/19 02:42:45;;;;;;;1.80;0.50;;;;;;;;;;5098501;28;20648;-79
2022/09/19 02:45:54;;;;;;;1.17;0.40;;;;;;;;;;5086274;28;20179;-79
2022/09/19 02:49:08;;;;;;;0.30;0.30;;;;;;;;;;5085694;28;20182;-79
2022/09/19 02:52:20;;;;;;;0.40;0.37;;;;;;;;;;5085426;28;20601;-79
2022/09/19 02:55:32;;;;;;;0.40;0.40;;;;;;;;;;5097109;28;20285;-80
2022/09/19 02:58:44;;;;;;;0.87;0.40;;;;;;;;;;5085955;28;20199;-79
2022/09/19 03:01:59;;;;;;;1.30;0.50;;;;;;;;;;5085005;28;20214;-79
2022/09/19 03:05:13;;;;;;;0.50;0.50;;;;;;;;;;5085568;28;20685;-79
2022/09/19 03:08:24;;;;;;;0.60;0.50;;;;;;;;;;5084846;28;20198;-79
2022/09/19 03:11:32;;;;;;;0.90;0.60;;;;;;;;;;5086166;28;20214;-79
2022/09/19 03:14:37;;;;;;;1.43;0.40;;;;;;;;;;5077990;28;20195;-79
2022/09/19 03:17:48;;;;;;;0.50;0.50;;;;;;;;;;5088772;28;20178;-79
2022/09/19 03:20:55;;;;;;;1.20;0.50;;;;;;;;;;5076595;28;20190;-79
2022/09/19 03:23:59;;;;;;;1.63;0.40;;;;;;;;;;5111791;28;20214;-80
2022/09/19 03:27:04;;;;;;;1.03;0.50;;;;;;;;;;5087944;28;20175;-80
2022/09/19 03:30:12;;;;;;;1.77;0.83;;;;;;;;;;5088198;28;20179;-79
2022/09/19 03:33:17;;;;;;;2.07;0.70;;;;;;;;;;5087304;28;20698;-79
2022/09/19 03:36:24;;;;;;;4.13;0.90;;;;;;;;;;5076207;28;20171;-79
2022/09/19 03:39:29;;;;;;;2.50;0.70;;;;;;;;;;5087603;28;20187;-80
2022/09/19 03:42:35;;;;;;;5.43;0.90;;;;;;;;;;5087556;28;20218;-78
2022/09/19 03:45:39;;;;;;;6.47;0.93;;;;;;;;;;5098189;28;20214;-80
2022/09/19 03:48:46;;;;;;;3.60;1.20;;;;;;;;;;5076652;28;20178;-79
2022/09/19 03:51:50;;;;;;;4.00;1.37;;;;;;;;;;5087199;28;20214;-79
2022/09/19 03:54:58;;;;;;;1.33;0.63;;;;;;;;;;5099064;28;20195;-79
2022/09/19 03:58:02;;;;;;;4.17;0.80;;;;;;;;;;5076093;28;20195;-78
2022/09/19 04:01:07;;;;;;;3.37;0.80;;;;;;;;;;5099317;28;20179;-80
2022/09/19 04:04:12;;;;;;;5.70;0.70;;;;;;;;;;5087941;28;20207;-78
2022/09/19 04:07:27;;;;;;;4.37;0.87;;;;;;;;;;5099218;28;20195;-79
2022/09/19 04:10:31;;;;;;;3.57;0.60;;;;;;;;;;5087466;28;20183;-79
2022/09/19 04:13:35;;;;;;;3.83;0.80;;;;;;;;;;5087608;28;20175;-79
2022/09/19 04:16:46;;;;;;;8.23;0.87;;;;;;;;;;5087505;28;20175;-79
2022/09/19 04:19:52;;;;;;;3.10;0.90;;;;;;;;;;5087597;28;20182;-79
2022/09/19 04:23:02;;;;;;;3.17;0.97;;;;;;;;;;5099606;28;20585;-79
2022/09/19 04:26:25;;;;;;;2.57;0.80;;;;;;;;;;5088487;28;20176;-79
2022/09/19 04:29:30;;;;;;;7.93;1.07;;;;;;;;;;5099887;28;20326;-79
2022/09/19 04:32:34;;;;;;;2.70;0.80;;;;;;;;;;5100538;28;20223;-79
2022/09/19 04:35:39;;;;;;;5.97;1.37;;;;;;;;;;5088094;28;20175;-80
2022/09/19 04:38:46;;;;;;;5.80;0.93;;;;;;;;;;5097979;28;20538;-79
2022/09/19 04:42:00;;;;;;;3.87;1.10;;;;;;;;;;5099258;28;20214;-80
2022/09/19 04:45:09;;;;;;;6.73;1.37;;;;;;;;;;5076643;28;20211;-80
2022/09/19 04:48:40;;;;;;;3.07;1.10;;;;;;;;;;5093531;28;20198;-80
2022/09/19 04:51:45;;;;;;;3.27;1.00;;;;;;;;;;5097450;28;20581;-79
2022/09/19 04:54:49;;;;;;;6.23;1.13;;;;;;;;;;5096908;28;20175;-79
2022/09/19 04:57:56;;;;;;;3.67;1.00;;;;;;;;;;5086058;28;20171;-79
2022/09/19 05:01:00;;;;;;;5.73;1.37;;;;;;;;;;5085845;28;20649;-79
2022/09/19 05:04:04;;;;;;;5.03;1.20;;;;;;;;;;5086079;28;20657;-79
2022/09/19 05:07:10;;;;;;;4.70;1.23;;;;;;;;;;5097956;28;20179;-79
2022/09/19 05:10:15;;;;;;;2.90;0.83;;;;;;;;;;5074182;28;20178;-79
2022/09/19 05:13:34;;;;;;;6.60;1.13;;;;;;;;;;5097790;28;20203;-79
2022/09/19 05:16:40;;;;;;;5.63;1.20;;;;;;;;;;5074990;28;20195;-78
2022/09/19 05:19:44;;;;;;;4.17;1.40;;;;;;;;;;5098328;28;20182;-77
2022/09/19 05:22:49;;;;;;;3.13;1.20;;;;;;;;;;5096308;28;20215;-78
2022/09/19 05:25:53;;;;;;;5.67;1.30;;;;;;;;;;5096500;28;20581;-79
2022/09/19 05:28:58;;;;;;;2.00;0.90;;;;;;;;;;5085131;28;20198;-79
2022/09/19 05:32:07;;;;;;;2.63;1.30;;;;;;;;;;5096896;28;20681;-79
2022/09/19 05:35:31;;;;;;;6.53;1.43;;;;;;;;;;5097529;28;20179;-79
2022/09/19 05:39:04;;;;;;;4.20;1.50;;;;;;;;;;5083605;28;20198;-79
2022/09/19 05:42:38;;;;;;;4.57;1.33;;;;;;;;;;5096270;28;20214;-79
2022/09/19 05:45:42;;;;;;;3.83;1.00;;;;;;;;;;5095818;28;20214;-78
2022/09/19 05:48:48;;;;;;;8.10;4.20;;;;;;;;;;5096088;28;20198;-79
2022/09/19 05:51:56;;;;;;;6.53;1.50;;;;;;;;;;5096046;28;20698;-81
2022/09/19 05:55:05;;;;;;;6.07;1.60;;;;;;;;;;5097317;28;20179;-81
2022/09/19 05:58:35;;;;;;;5.77;1.70;;;;;;;;;;5092953;28;20186;-81
2022/09/19 06:01:39;;;;;;;3.40;1.30;;;;;;;;;;5084108;28;20689;-82
2022/09/19 06:04:50;;;;;;;4.63;1.90;;;;;;;;;;5096098;28;20206;-81
2022/09/19 06:07:57;;;;;;;6.47;1.40;;;;;;;;;;5073645;28;20171;-82
2022/09/19 06:11:02;;;;;;;6.70;1.73;;;;;;;;;;5073092;28;20175;-81
2022/09/19 06:14:13;;;;;;;4.27;1.50;;;;;;;;;;5084469;28;20183;-81
2022/09/19 06:17:19;;;;;;;6.07;1.63;;;;;;;;;;5080585;28;20191;-82
2022/09/19 06:20:34;;;;;;;3.93;1.40;;;;;;;;;;5065433;28;20543;-81
2022/09/19 06:23:50;;;;;;;6.07;1.47;;;;;;;;;;5065430;28;20191;-81
2022/09/19 06:26:54;;;;;;;4.53;1.27;;;;;;;;;;5076029;28;20175;-80
2022/09/19 06:30:01;;;;;;;6.27;1.37;;;;;;;;;;5063816;28;20528;-81
2022/09/19 06:33:09;;;;;;;3.80;1.83;;;;;;;;;;5053517;28;20215;-80
2022/09/19 06:36:20;;;;;;;3.50;1.53;;;;;;;;;;5064881;28;20176;-81
2022/09/19 06:39:25;;;;;;;3.00;1.20;;;;;;;;;;5087241;28;20188;-80
2022/09/19 06:43:01;;;;;;;2.70;1.40;;;;;;;;;;5064935;28;20223;-80
2022/09/19 06:46:19;;;;;;;3.03;1.30;;;;;;;;;;5054513;28;20203;-80
2022/09/19 06:49:42;;;;;;;4.73;1.80;;;;;;;;;;5082236;28;20184;-80
2022/09/19 06:53:06;;;;;;;4.60;1.73;;;;;;;;;;5078939;28;20286;-81
2022/09/19 06:56:10;;;;;;;4.30;1.60;;;;;;;;;;5055129;28;20199;-81
2022/09/19 06:59:16;;;;;;;5.07;2.60;;;;;;;;;;5066461;28;20188;-80
2022/09/19 07:02:21;;;;;;;3.97;1.80;;;;;;;;;;5055466;28;20219;-81
2022/09/19 07:05:29;;;;;;;6.63;2.83;;;;;;;;;;5066538;28;20666;-80
2022/09/19 07:08:53;;;;;;;8.83;2.13;;;;;;;;;;5077993;28;20559;-81
2022/09/19 07:11:58;;;;;;;5.07;1.70;;;;;;;;;;5054652;28;20211;-81
2022/09/19 07:15:05;;;;;;;10.77;4.50;;;;;;;;;;5065963;28;20167;-80
2022/09/19 07:18:12;;;;;;;3.70;2.20;;;;;;;;;;5065705;28;20195;-83
2022/09/19 07:21:17;;;;;;;4.73;1.50;;;;;;;;;;5065539;28;20694;-82
2022/09/19 07:24:24;;;;;;;8.07;1.53;;;;;;;;;;5077137;28;20199;-81
2022/09/19 07:27:52;;;;;;;5.10;1.60;;;;;;;;;;5065684;28;20180;-81
2022/09/19 07:30:58;;;;;;;5.50;1.60;;;;;;;;;;5054169;28;20183;-81
2022/09/19 07:34:02;;;;;;;7.07;1.57;;;;;;;;;;5065736;28;20183;-80
2022/09/19 07:37:09;;;;;;;4.53;1.60;;;;;;;;;;5066169;28;20191;-81
2022/09/19 07:40:14;;;;;;;6.17;1.70;;;;;;;;;;5065933;28;20183;-81
2022/09/19 07:43:30;;;;;;;6.60;2.90;;;;;;;;;;5066898;28;20180;-80
2022/09/19 07:50:32;;;;;;;3.97;2.20;;;;;;;;;;5065276;28;20635;-81
2022/09/19 07:53:57;;;;;;;2.77;1.80;;;;;;;;;;5068062;28;20176;-80
2022/09/19 07:57:02;;;;;;;4.00;2.00;;;;;;;;;;5052485;28;20203;-80
2022/09/19 08:00:07;;;;;;;4.43;1.50;;;;;;;;;;5065083;28;20175;-82
2022/09/19 08:03:28;;;;;;;6.13;1.90;;;;;;;;;;5076566;28;20623;-80
2022/09/19 08:06:33;;;;;;;6.60;1.73;;;;;;;;;;5065479;28;20203;-81
2022/09/19 08:09:40;;;;;;;4.47;3.67;;;;;;;;;;5065404;28;20179;-81
2022/09/19 08:12:48;;;;;;;5.90;2.60;;;;;;;;;;5065511;28;20215;-80
2022/09/19 08:15:52;;;;;;;3.97;1.90;;;;;;;;;;5066822;28;20195;-81
2022/09/19 08:18:59;;;;;;;7.00;2.20;;;;;;;;;;5055303;28;20192;-81
2022/09/19 08:22:03;;;;;;;8.20;4.97;;;;;;;;;;5065666;28;20215;-81
2022/09/19 08:25:14;;;;;;;11.37;4.10;;;;;;;;;;5054538;28;20184;-81
2022/09/19 08:28:21;;;;;;;7.87;1.93;;;;;;;;;;5075949;28;20635;-82
2022/09/19 08:31:26;;;;;;;4.77;2.17;;;;;;;;;;5076412;28;20215;-81
2022/09/19 08:34:31;;;;;;;6.47;2.07;;;;;;;;;;5065105;28;20184;-82
2022/09/19 08:37:35;;;;;;;5.20;2.27;;;;;;;;;;5053733;28;20486;-83
2022/09/19 08:40:39;;;;;;;6.03;1.80;;;;;;;;;;5054155;28;20176;-80
2022/09/19 08:44:08;;;;;;;9.13;1.80;;;;;;;;;;5064514;28;20183;-81
2022/09/19 08:47:21;;;;;;;5.53;2.03;;;;;;;;;;5064573;28;20669;-81
2022/09/19 08:50:32;;;;;;;4.40;2.97;;;;;;;;;;5053423;28;20180;-80
2022/09/19 08:53:45;;;;;;;11.03;4.20;;;;;;;;;;5064111;28;20180;-81
2022/09/19 08:56:49;;;;;;;6.27;3.00;;;;;;;;;;5064037;28;20202;-80
2022/09/19 09:00:00;;;;;;;5.23;2.10;;;;;;;;;;5052905;28;20183;-79
2022/09/19 09:03:07;;;;;;;7.23;1.60;;;;;;;;;;5063610;28;20207;-79
2022/09/19 09:06:27;;;;;;;5.03;1.77;;;;;;;;;;5075209;28;20214;-79
2022/09/19 09:09:41;;;;;;;5.90;1.83;;;;;;;;;;5074065;28;20192;-79
2022/09/19 09:13:17;;;;;;;9.53;1.70;;;;;;;;;;5063062;28;20246;-79
2022/09/19 09:16:42;;;;;;;8.57;2.27;;;;;;;;;;5075705;28;20173;-79
2022/09/19 09:20:27;;;;;;;6.07;2.10;;;;;;;;;;5075336;28;20191;-80
2022/09/19 09:23:38;;;;;;;6.57;1.80;;;;;;;;;;5021801;28;20197;-80
2022/09/19 09:27:04;;;;;;;9.10;2.03;;;;;;;;;;5031574;28;20222;-81
2022/09/19 09:30:16;;;;;;;6.80;1.90;;;;;;;;;;5063719;28;20183;-80
2022/09/19 09:33:31;;;;;;;6.90;3.13;;;;;;;;;;5053551;28;20171;-82
2022/09/19 09:36:47;;;;;;;7.07;2.20;;;;;;;;;;5064631;28;20176;-81
2022/09/19 09:40:09;;;;;;;10.10;2.30;;;;;;;;;;5064651;28;20196;-81
2022/09/19 09:43:20;;;;;;;7.03;1.93;;;;;;;;;;5052602;28;20207;-81
2022/09/19 09:46:53;;;;;;;7.43;2.07;;;;;;;;;;5075635;28;20215;-81
2022/09/19 09:50:39;;;;;;;9.10;1.90;;;;;;;;;;5075124;28;20175;-80
2022/09/19 09:56:14;;;;;;;3.33;1.70;;;;;;;;;;5065395;28;20171;-80
2022/09/19 09:57:45;;;;;;;6.73;1.80;;;;;;;;;;5064151;28;20191;-81
2022/09/19 10:04:45;;;;;;;6.13;1.93;;;;;;;;;;5064973;28;20179;-83
2022/09/19 10:08:30;;;;;;;9.70;2.00;;;;;;;;;;5065928;28;20528;-81
2022/09/19 10:12:06;;;;;;;5.93;1.80;;;;;;;;;;5055976;28;20214;-81
2022/09/19 10:15:20;;;;;;;3.43;1.73;;;;;;;;;;5064793;28;20175;-82
2022/09/19 10:18:43;;;;;;;7.80;2.00;;;;;;;;;;5066401;28;20180;-81
2022/09/19 10:21:52;;;;;;;5.33;1.83;;;;;;;;;;5068899;28;20211;-81
2022/09/19 10:24:59;;;;;;;6.93;2.50;;;;;;;;;;5070044;28;20520;-81
2022/09/19 10:28:29;;;;;;;7.67;2.20;;;;;;;;;;5058712;28;20175;-82
2022/09/19 10:31:57;;;;;;;5.97;2.17;;;;;;;;;;5070030;28;20693;-81
2022/09/19 10:35:30;;;;;;;8.50;2.13;;;;;;;;;;5080680;28;20172;-82
2022/09/19 10:38:50;;;;;;;6.60;2.40;;;;;;;;;;5068957;28;20527;-80
2022/09/19 10:41:56;;;;;;;7.07;2.23;;;;;;;;;;5069837;28;20547;-80
2022/09/19 10:45:15;;;;;;;9.40;2.00;;;;;;;;;;5068331;28;20176;-82
2022/09/19 10:48:34;;;;;;;6.63;1.97;;;;;;;;;;5070071;28;20175;-82
2022/09/19 10:51:44;;;;;;;6.57;1.90;;;;;;;;;;5057474;28;20220;-81
2022/09/19 10:54:52;;;;;;;7.10;1.90;;;;;;;;;;5069279;28;20184;-82
2022/09/19 10:58:22;;;;;;;4.23;2.00;;;;;;;;;;5058134;28;20167;-83
2022/09/19 11:01:36;;;;;;;6.27;1.60;;;;;;;;;;5068683;28;20555;-81
2022/09/19 11:04:59;;;;;;;10.13;2.07;;;;;;;;;;5079784;28;20195;-82
2022/09/19 11:08:23;;;;;;;6.40;1.60;;;;;;;;;;5068128;28;20552;-82
2022/09/19 11:11:40;;;;;;;6.60;1.60;;;;;;;;;;5068704;28;20220;-81
2022/09/19 11:14:50;;;;;;;5.50;1.53;;;;;;;;;;5057190;28;20528;-82
2022/09/19 11:18:29;;;;;;;5.60;1.83;;;;;;;;;;5070776;28;20179;-82
2022/09/19 11:22:05;;;;;;;7.37;1.57;;;;;;;;;;5068711;28;20215;-81
2022/09/19 11:25:36;;;;;;;5.30;1.40;;;;;;;;;;5069532;28;20180;-81
2022/09/19 11:29:02;;;;;;;4.93;1.47;;;;;;;;;;5080425;28;20187;-81
2022/09/19 11:32:34;;;;;;;2.80;1.40;;;;;;;;;;5057045;28;20207;-82
2022/09/19 11:35:48;;;;;;;5.20;1.80;;;;;;;;;;5056454;28;20622;-81
2022/09/19 11:39:05;;;;;;;5.70;2.77;;;;;;;;;;5067967;28;20176;-83
2022/09/19 11:42:30;;;;;;;5.57;2.00;;;;;;;;;;5057890;28;20215;-81
2022/09/19 11:45:51;;;;;;;5.57;1.70;;;;;;;;;;5056615;28;20184;-82
2022/09/19 11:49:04;;;;;;;5.87;2.10;;;;;;;;;;5056203;28;20176;-84
2022/09/19 11:52:41;;;;;;;6.97;1.83;;;;;;;;;;5067064;28;20684;-82
2022/09/19 11:55:58;;;;;;;5.60;1.70;;;;;;;;;;5055495;28;20207;-83
2022/09/19 11:59:06;;;;;;;4.03;1.40;;;;;;;;;;5054490;28;20184;-82
2022/09/19 12:02:44;;;;;;;6.60;1.60;;;;;;;;;;5054755;28;20211;-83
2022/09/19 12:06:03;;;;;;;5.80;1.60;;;;;;;;;;5054093;28;20172;-83
2022/09/19 12:09:25;;;;;;;3.23;1.20;;;;;;;;;;5066051;28;20188;-82
2022/09/19 12:12:36;;;;;;;3.27;1.30;;;;;;;;;;5065653;28;20220;-81
2022/09/19 12:16:06;;;;;;;3.53;1.60;;;;;;;;;;5078672;28;20180;-82
2022/09/19 12:19:21;;;;;;;4.80;1.60;;;;;;;;;;5077992;28;20188;-82
2022/09/19 12:22:29;;;;;;;2.20;1.40;;;;;;;;;;5066742;28;20211;-82
2022/09/19 12:25:35;;;;;;;5.17;1.53;;;;;;;;;;5067130;28;20631;-82
2022/09/19 12:28:44;;;;;;;2.57;1.00;;;;;;;;;;5057638;28;20171;-82
2022/09/19 12:31:56;;;;;;;1.70;1.20;;;;;;;;;;5078240;28;20219;-83
2022/09/19 12:35:18;;;;;;;4.33;0.97;;;;;;;;;;5055389;28;20175;-81
2022/09/19 12:38:35;;;;;;;6.90;1.13;;;;;;;;;;5054591;28;20180;-82
2022/09/19 12:42:09;;;;;;;12.97;9.03;;;;;;;;;;5054216;28;20215;-83
2022/09/19 12:45:21;;;;;;;2.43;1.47;;;;;;;;;;5064741;28;20183;-82
2022/09/19 12:49:03;;;;;;;2.57;1.30;;;;;;;;;;5053647;28;20211;-81
2022/09/19 12:52:47;;;;;;;3.03;1.10;;;;;;;;;;5079309;28;20207;-82
2022/09/19 12:56:02;;;;;;;3.90;0.87;;;;;;;;;;5063747;28;20203;-81
2022/09/19 12:59:18;;;;;;;3.13;1.20;;;;;;;;;;5088728;28;20620;-82
2022/09/19 13:02:43;;;;;;;1.93;0.80;;;;;;;;;;5055097;28;20220;-81
2022/09/19 13:05:55;;;;;;;2.90;1.00;;;;;;;;;;5065821;28;20548;-84
2022/09/19 13:09:07;;;;;;;5.10;2.60;;;;;;;;;;5069448;28;20188;-82
2022/09/19 13:12:17;;;;;;;2.50;0.90;;;;;;;;;;5058303;28;20211;-82
2022/09/19 13:15:34;;;;;;;5.87;1.27;;;;;;;;;;5067448;28;20188;-81
2022/09/19 13:25:26;;;;;;;1.77;1.00;;;;;;;;;;5088694;28;20536;-82
2022/09/19 13:28:44;;;;;;;4.03;1.20;;;;;;;;;;5065220;28;20211;-81
2022/09/19 13:31:51;;;;;;;4.07;1.20;;;;;;;;;;5076649;28;20563;-82
2022/09/19 13:35:03;;;;;;;3.67;1.13;;;;;;;;;;5066341;28;20183;-81
2022/09/19 13:38:25;;;;;;;2.97;1.10;;;;;;;;;;5077851;28;20187;-81
2022/09/19 13:41:41;;;;;;;7.50;4.30;;;;;;;;;;5077109;28;20211;-83
2022/09/19 13:44:55;;;;;;;4.40;1.60;;;;;;;;;;5064741;28;20528;-81
2022/09/19 13:48:11;;;;;;;4.93;1.20;;;;;;;;;;5054149;28;20215;-82
2022/09/19 13:51:27;;;;;;;4.17;1.53;;;;;;;;;;5077000;28;20191;-83
2022/09/19 13:54:44;;;;;;;2.87;1.10;;;;;;;;;;5053980;28;20183;-81
2022/09/19 13:57:48;;;;;;;4.57;1.57;;;;;;;;;;5054373;28;20168;-83
2022/09/19 14:01:12;;;;;;;4.07;1.23;;;;;;;;;;5053232;28;20172;-83
2022/09/19 14:07:57;;;;;;;2.47;0.80;;;;;;;;;;5076805;28;20207;-82
2022/09/19 14:11:03;;;;;;;3.20;1.10;;;;;;;;;;5053289;28;20176;-82
2022/09/19 14:14:40;;;;;;;2.53;1.23;;;;;;;;;;5053698;28;20180;-82
2022/09/19 14:18:25;;;;;;;2.47;1.00;;;;;;;;;;5065179;28;20176;-82
2022/09/19 14:21:33;;;;;;;2.63;1.50;;;;;;;;;;5064980;28;20212;-82
2022/09/19 14:24:44;;;;;;;5.80;1.10;;;;;;;;;;5077852;28;20179;-82
2022/09/19 14:28:03;;;;;;;4.53;1.40;;;;;;;;;;5065734;28;20520;-81
2022/09/19 14:31:32;;;;;;;3.40;1.20;;;;;;;;;;5064726;28;20176;-82
2022/09/19 14:34:47;;;;;;;3.60;1.00;;;;;;;;;;5076187;28;20627;-81
2022/09/19 14:38:31;;;;;;;6.73;1.00;;;;;;;;;;5065146;28;20168;-82
2022/09/19 14:42:00;;;;;;;3.40;1.20;;;;;;;;;;5065645;28;20219;-80
2022/09/19 14:45:26;;;;;;;4.30;0.90;;;;;;;;;;5078506;28;20180;-81
2022/09/19 14:48:41;;;;;;;3.87;1.10;;;;;;;;;;5054777;28;20212;-81
2022/09/19 14:52:00;;;;;;;3.30;1.00;;;;;;;;;;5054481;28;20203;-83
2022/09/19 14:55:13;;;;;;;2.93;1.20;;;;;;;;;;5075981;28;20192;-81
2022/09/19 14:58:50;;;;;;;2.33;0.90;;;;;;;;;;5079020;28;20176;-82
2022/09/19 15:02:04;;;;;;;31.27;20.27;;;;;;;;;;5084399;28;20219;-82
2022/09/19 15:05:19;;;;;;;19.70;13.43;;;;;;;;;;5066601;28;20183;-81
2022/09/19 15:08:27;;;;;;;20.23;13.87;;;;;;;;;;5068583;28;20215;-82
2022/09/19 15:11:31;;;;;;;12.47;9.27;;;;;;;;;;5071607;28;20214;-82
2022/09/19 15:14:42;;;;;;;6.20;3.50;;;;;;;;;;5094872;28;20195;-83
2022/09/19 15:17:46;;;;;;;6.77;1.73;;;;;;;;;;5070593;28;20176;-83
2022/09/19 15:21:00;;;;;;;2.77;1.13;;;;;;;;;;5070156;28;20184;-82
2022/09/19 15:24:06;;;;;;;3.00;0.93;;;;;;;;;;5061270;28;20531;-81
2022/09/19 15:27:13;;;;;;;1.40;0.90;;;;;;;;;;5073188;28;20171;-82
2022/09/19 15:30:25;;;;;;;3.80;1.07;;;;;;;;;;5083371;28;20180;-82
2022/09/19 15:33:30;;;;;;;3.20;1.73;;;;;;;;;;5082655;28;20516;-82
2022/09/19 15:36:37;;;;;;;8.33;7.13;;;;;;;;;;5083077;28;20180;-81
2022/09/19 15:39:41;;;;;;;7.10;6.40;;;;;;;;;;5061843;28;20619;-81
2022/09/19 15:42:46;;;;;;;2.37;1.10;;;;;;;;;;5070152;28;20218;-82
2022/09/19 15:45:52;;;;;;;4.87;1.10;;;;;;;;;;5060104;28;20184;-81
2022/09/19 15:48:59;;;;;;;1.77;0.80;;;;;;;;;;5070585;28;20199;-83
2022/09/19 15:52:09;;;;;;;6.43;1.03;;;;;;;;;;5080307;28;20215;-84
2022/09/19 15:55:32;;;;;;;2.30;0.80;;;;;;;;;;5056674;28;20188;-80
2022/09/19 15:58:44;;;;;;;3.47;1.10;;;;;;;;;;5067276;28;20180;-80
2022/09/19 16:01:59;;;;;;;4.60;1.50;;;;;;;;;;5079542;28;20215;-83
2022/09/19 16:05:15;;;;;;;4.93;0.90;;;;;;;;;;5083706;28;20187;-82
2022/09/19 16:11:50;;;;;;;2.27;0.93;;;;;;;;;;5090107;28;20214;-81
2022/09/19 16:15:18;;;;;;;3.37;1.20;;;;;;;;;;5087304;28;20183;-81
2022/09/19 16:18:23;;;;;;;4.73;0.83;;;;;;;;;;5097306;28;20170;-81
2022/09/19 16:21:40;;;;;;;6.33;1.20;;;;;;;;;;5097834;28;20207;-81
2022/09/19 16:24:48;;;;;;;3.10;1.10;;;;;;;;;;5076177;28;20175;-80
2022/09/19 16:27:52;;;;;;;2.07;1.70;;;;;;;;;;5101421;28;20218;-81
2022/09/19 16:31:05;;;;;;;8.30;7.43;;;;;;;;;;5091136;28;20178;-82
2022/09/19 16:34:25;;;;;;;8.30;7.03;;;;;;;;;;5090879;28;20191;-82
2022/09/19 16:37:34;;;;;;;8.90;5.80;;;;;;;;;;5080491;28;20175;-82
2022/09/19 16:40:52;;;;;;;2.97;1.70;;;;;;;;;;5100778;28;20650;-81
2022/09/19 16:44:03;;;;;;;2.90;0.97;;;;;;;;;;5086529;28;20179;-81
2022/09/19 16:47:17;;;;;;;4.77;1.20;;;;;;;;;;5096539;28;20195;-81
2022/09/19 16:50:25;;;;;;;3.20;1.07;;;;;;;;;;5097744;28;20175;-79
2022/09/19 16:53:29;;;;;;;2.23;1.03;;;;;;;;;;5098566;28;20179;-81
2022/09/19 16:56:33;;;;;;;2.37;1.40;;;;;;;;;;5097297;28;20202;-81
2022/09/19 16:59:39;;;;;;;5.87;3.80;;;;;;;;;;5097406;28;20507;-80
2022/09/19 17:02:43;;;;;;;3.17;2.00;;;;;;;;;;5098326;28;20211;-82
2022/09/19 17:05:48;;;;;;;2.97;1.73;;;;;;;;;;5110239;28;20199;-82
2022/09/19 17:08:52;;;;;;;3.37;1.60;;;;;;;;;;5098254;28;20214;-81
2022/09/19 17:11:56;;;;;;;4.47;1.23;;;;;;;;;;5097613;28;20222;-82
2022/09/19 17:15:01;;;;;;;3.80;1.10;;;;;;;;;;5097673;28;20531;-83
2022/09/19 17:18:05;;;;;;;3.40;1.33;;;;;;;;;;5075571;28;20179;-82
2022/09/19 17:21:13;;;;;;;2.30;1.10;;;;;;;;;;5085680;28;20174;-82
2022/09/19 17:24:17;;;;;;;7.53;1.70;;;;;;;;;;5097180;28;20178;-77
2022/09/19 17:27:21;;;;;;;3.20;2.33;;;;;;;;;;5097693;28;20179;-78
2022/09/19 17:30:26;;;;;;;4.07;1.90;;;;;;;;;;5095819;28;20278;-80
2022/09/19 17:33:31;;;;;;;7.73;2.20;;;;;;;;;;5096181;28;20187;-78
2022/09/19 17:36:35;;;;;;;3.93;1.50;;;;;;;;;;5096281;28;20178;-77
2022/09/19 17:39:39;;;;;;;3.20;1.40;;;;;;;;;;5095460;28;20194;-78
2022/09/19 17:42:44;;;;;;;4.23;1.30;;;;;;;;;;5096528;28;20210;-77
2022/09/19 17:46:09;;;;;;;3.90;1.60;;;;;;;;;;5096103;28;20512;-77
2022/09/19 17:49:13;;;;;;;3.77;1.60;;;;;;;;;;5094713;28;20203;-77
2022/09/19 17:52:19;;;;;;;3.30;1.20;;;;;;;;;;5094281;28;20214;-77
2022/09/19 17:55:24;;;;;;;2.87;1.43;;;;;;;;;;5093921;28;20194;-77
2022/09/19 17:58:28;;;;;;;3.73;1.33;;;;;;;;;;5094935;28;20537;-77
2022/09/19 18:04:55;;;;;;;7.67;3.67;;;;;;;;;;5095776;28;20179;-77
2022/09/19 18:08:00;;;;;;;4.13;2.20;;;;;;;;;;5095623;28;20171;-77
2022/09/19 18:11:05;;;;;;;4.57;1.70;;;;;;;;;;5096946;28;20190;-79
2022/09/19 18:14:09;;;;;;;4.40;1.90;;;;;;;;;;5096499;28;20182;-77
2022/09/19 18:17:14;;;;;;;5.80;2.17;;;;;;;;;;5095944;28;20171;-78
2022/09/19 18:20:19;;;;;;;2.00;1.73;;;;;;;;;;5096205;28;20175;-79
2022/09/19 18:23:23;;;;;;;7.87;2.60;;;;;;;;;;5096136;28;20175;-78
2022/09/19 18:26:28;;;;;;;5.67;2.10;;;;;;;;;;5094990;28;20178;-78
2022/09/19 18:29:32;;;;;;;2.50;1.70;;;;;;;;;;5096254;28;20206;-78
2022/09/19 18:32:36;;;;;;;4.57;2.10;;;;;;;;;;5095879;28;20214;-78
2022/09/19 18:35:40;;;;;;;6.10;1.70;;;;;;;;;;5096045;28;20182;-78
2022/09/19 18:38:47;;;;;;;4.03;2.07;;;;;;;;;;5082640;28;20503;-81
2022/09/19 18:41:51;;;;;;;3.57;2.00;;;;;;;;;;5098119;28;20219;-82
2022/09/19 18:44:55;;;;;;;2.33;1.50;;;;;;;;;;5099189;28;20522;-82
2022/09/19 18:48:00;;;;;;;2.97;1.90;;;;;;;;;;5075397;28;20178;-81
2022/09/19 18:51:13;;;;;;;5.20;2.10;;;;;;;;;;5087395;28;20198;-82
2022/09/19 18:54:17;;;;;;;2.67;1.73;;;;;;;;;;5087040;28;20646;-82
2022/09/19 18:57:22;;;;;;;4.07;1.90;;;;;;;;;;5098424;28;20657;-81
2022/09/19 19:00:26;;;;;;;3.73;1.87;;;;;;;;;;5098526;28;20633;-82
2022/09/19 19:03:33;;;;;;;6.67;2.47;;;;;;;;;;5086890;28;20199;-80
2022/09/19 19:06:37;;;;;;;2.80;2.00;;;;;;;;;;5086489;28;20175;-82
2022/09/19 19:09:41;;;;;;;3.97;1.80;;;;;;;;;;5099409;28;20218;-82
2022/09/19 19:12:45;;;;;;;4.43;1.90;;;;;;;;;;5085934;28;20210;-78
2022/09/19 19:15:49;;;;;;;4.43;2.30;;;;;;;;;;5097640;28;20179;-78
2022/09/19 19:18:54;;;;;;;4.20;2.30;;;;;;;;;;5086787;28;20175;-78
2022/09/19 19:21:58;;;;;;;3.77;2.00;;;;;;;;;;5098175;28;20214;-78
2022/09/19 19:25:02;;;;;;;3.97;1.77;;;;;;;;;;5097996;28;20179;-79
2022/09/19 19:28:06;;;;;;;4.77;2.00;;;;;;;;;;5098275;28;20187;-80
2022/09/19 19:31:10;;;;;;;4.27;1.87;;;;;;;;;;5097823;28;20182;-82
2022/09/19 19:34:14;;;;;;;2.77;1.77;;;;;;;;;;5086306;28;20187;-81
2022/09/19 19:37:18;;;;;;;4.03;1.50;;;;;;;;;;5098478;28;20538;-82
2022/09/19 19:40:22;;;;;;;4.30;2.03;;;;;;;;;;5098666;28;20170;-79